sensor_id;sensor_type;location;lat;lon;timestamp;temperature;humidity
584;HTU21D;27024;54.068;12.116;2023-11-19T00:00:09;3.34;118.99
584;HTU21D;27024;54.068;12.116;2023-11-19T00:02:40;3.36;118.99
584;HTU21D;27024;54.068;12.116;2023-11-19T00:05:09;3.31;118.99
584;HTU21D;27024;54.068;12.116;2023-11-19T00:07:36;3.35;118.99
584;HTU21D;27024;54.068;12.116;2023-11-19T00:10:04;3.34;118.99
584;HTU21D;27024;54.068;12.116;2023-11-19T00:12:33;3.34;118.99
584;HTU21D;27024;54.068;12.116;2023-11-19T00:15:00;3.34;118.99
584;HTU21D;27024;54.068;12.116;2023-11-19T00:17:28;3.34;118.99
584;HTU21D;27024;54.068;12.116;2023-11-19T00:19:55;3.36;118.99
584;HTU21D;27024;54.068;12.116;2023-11-19T00:22:22;3.33;118.99
584;HTU21D;27024;54.068;12.116;2023-11-19T00:24:49;3.39;118.99
584;HTU21D;27024;54.068;12.116;2023-11-19T00:27:16;3.40;118.99
584;HTU21D;27024;54.068;12.116;2023-11-19T00:29:44;3.43;118.99
584;HTU21D;27024;54.068;12.116;2023-11-19T00:32:11;3.39;118.99
584;HTU21D;27024;54.068;12.116;2023-11-19T00:34:38;3.40;118.99
584;HTU21D;27024;54.068;12.116;2023-11-19T00:37:05;3.44;118.99
584;HTU21D;27024;54.068;12.116;2023-11-19T00:39:33;3.40;118.99
584;HTU21D;27024;54.068;12.116;2023-11-19T00:42:00;3.43;118.99
584;HTU21D;27024;54.068;12.116;2023-11-19T00:44:27;3.41;118.99
584;HTU21D;27024;54.068;12.116;2023-11-19T00:46:54;3.43;118.99
584;HTU21D;27024;54.068;12.116;2023-11-19T00:49:21;3.44;118.99
584;HTU21D;27024;54.068;12.116;2023-11-19T00:51:48;3.41;118.99
584;HTU21D;27024;54.068;12.116;2023-11-19T00:54:15;3.38;118.99
584;HTU21D;27024;54.068;12.116;2023-11-19T00:56:42;3.32;118.99
584;HTU21D;27024;54.068;12.116;2023-11-19T00:59:09;3.33;118.99
584;HTU21D;27024;54.068;12.116;2023-11-19T01:01:36;3.33;118.99
584;HTU21D;27024;54.068;12.116;2023-11-19T01:04:03;3.28;118.99
584;HTU21D;27024;54.068;12.116;2023-11-19T01:06:31;3.30;118.99
584;HTU21D;27024;54.068;12.116;2023-11-19T01:08:58;3.25;118.99
584;HTU21D;27024;54.068;12.116;2023-11-19T01:11:25;3.19;118.99
584;HTU21D;27024;54.068;12.116;2023-11-19T01:13:52;3.17;118.99
584;HTU21D;27024;54.068;12.116;2023-11-19T01:16:19;3.17;118.99
584;HTU21D;27024;54.068;12.116;2023-11-19T01:18:47;3.20;118.99
584;HTU21D;27024;54.068;12.116;2023-11-19T01:21:15;3.10;118.99
584;HTU21D;27024;54.068;12.116;2023-11-19T01:23:42;3.12;118.99
584;HTU21D;27024;54.068;12.116;2023-11-19T01:26:13;3.17;118.99
584;HTU21D;27024;54.068;12.116;2023-11-19T01:28:40;3.16;118.99
584;HTU21D;27024;54.068;12.116;2023-11-19T01:31:18;3.16;118.99
584;HTU21D;27024;54.068;12.116;2023-11-19T01:33:45;3.10;118.99
584;HTU21D;27024;54.068;12.116;2023-11-19T01:36:13;3.06;118.99
584;HTU21D;27024;54.068;12.116;2023-11-19T01:38:41;3.03;118.99
584;HTU21D;27024;54.068;12.116;2023-11-19T01:41:08;3.02;118.99
584;HTU21D;27024;54.068;12.116;2023-11-19T01:43:36;3.06;118.99
584;HTU21D;27024;54.068;12.116;2023-11-19T01:46:05;3.00;118.99
584;HTU21D;27024;54.068;12.116;2023-11-19T01:48:34;3.01;118.99
584;HTU21D;27024;54.068;12.116;2023-11-19T01:51:03;3.06;118.99
584;HTU21D;27024;54.068;12.116;2023-11-19T01:53:31;3.08;118.99
584;HTU21D;27024;54.068;12.116;2023-11-19T01:55:58;3.06;118.99
584;HTU21D;27024;54.068;12.116;2023-11-19T01:58:26;3.06;118.99
584;HTU21D;27024;54.068;12.116;2023-11-19T02:00:53;3.06;118.99
584;HTU21D;27024;54.068;12.116;2023-11-19T02:03:21;3.08;118.99
584;HTU21D;27024;54.068;12.116;2023-11-19T02:05:49;3.06;118.99
584;HTU21D;27024;54.068;12.116;2023-11-19T02:08:17;3.08;118.99
584;HTU21D;27024;54.068;12.116;2023-11-19T02:10:44;3.08;118.99
584;HTU21D;27024;54.068;12.116;2023-11-19T02:13:11;3.06;118.99
584;HTU21D;27024;54.068;12.116;2023-11-19T02:15:43;3.00;118.99
584;HTU21D;27024;54.068;12.116;2023-11-19T02:18:36;3.10;118.99
584;HTU21D;27024;54.068;12.116;2023-11-19T02:21:04;3.06;118.99
584;HTU21D;27024;54.068;12.116;2023-11-19T02:23:32;3.06;118.99
584;HTU21D;27024;54.068;12.116;2023-11-19T02:26:10;3.08;118.99
584;HTU21D;27024;54.068;12.116;2023-11-19T02:28:41;3.04;118.99
584;HTU21D;27024;54.068;12.116;2023-11-19T02:31:09;3.06;118.99
584;HTU21D;27024;54.068;12.116;2023-11-19T02:33:39;3.06;118.99
584;HTU21D;27024;54.068;12.116;2023-11-19T02:36:07;3.09;118.99
584;HTU21D;27024;54.068;12.116;2023-11-19T02:38:35;3.10;118.99
584;HTU21D;27024;54.068;12.116;2023-11-19T02:41:06;3.11;118.99
584;HTU21D;27024;54.068;12.116;2023-11-19T02:43:34;3.10;118.99
584;HTU21D;27024;54.068;12.116;2023-11-19T02:46:02;3.04;118.99
584;HTU21D;27024;54.068;12.116;2023-11-19T02:48:41;3.08;118.99
584;HTU21D;27024;54.068;12.116;2023-11-19T02:51:10;3.12;118.99
584;HTU21D;27024;54.068;12.116;2023-11-19T02:53:38;3.15;118.99
584;HTU21D;27024;54.068;12.116;2023-11-19T02:56:07;3.15;118.99
584;HTU21D;27024;54.068;12.116;2023-11-19T02:58:53;3.13;118.99
584;HTU21D;27024;54.068;12.116;2023-11-19T03:01:24;3.10;118.99
584;HTU21D;27024;54.068;12.116;2023-11-19T03:03:58;3.15;118.99
584;HTU21D;27024;54.068;12.116;2023-11-19T03:06:26;3.16;118.99
584;HTU21D;27024;54.068;12.116;2023-11-19T03:08:55;3.18;118.99
584;HTU21D;27024;54.068;12.116;2023-11-19T03:11:22;3.16;118.99
584;HTU21D;27024;54.068;12.116;2023-11-19T03:13:49;3.23;118.99
584;HTU21D;27024;54.068;12.116;2023-11-19T03:16:16;3.23;118.99
584;HTU21D;27024;54.068;12.116;2023-11-19T03:18:43;3.24;118.99
584;HTU21D;27024;54.068;12.116;2023-11-19T03:21:10;3.30;118.99
584;HTU21D;27024;54.068;12.116;2023-11-19T03:23:37;3.27;118.99
584;HTU21D;27024;54.068;12.116;2023-11-19T03:26:06;3.31;118.99
584;HTU21D;27024;54.068;12.116;2023-11-19T03:28:33;3.32;118.99
584;HTU21D;27024;54.068;12.116;2023-11-19T03:31:00;3.33;118.99
584;HTU21D;27024;54.068;12.116;2023-11-19T03:33:27;3.39;118.99
584;HTU21D;27024;54.068;12.116;2023-11-19T03:35:56;3.35;118.99
584;HTU21D;27024;54.068;12.116;2023-11-19T03:38:24;3.41;118.99
584;HTU21D;27024;54.068;12.116;2023-11-19T03:40:51;3.40;118.99
584;HTU21D;27024;54.068;12.116;2023-11-19T03:43:18;3.40;118.99
584;HTU21D;27024;54.068;12.116;2023-11-19T03:45:48;3.40;118.99
584;HTU21D;27024;54.068;12.116;2023-11-19T03:48:15;3.40;118.99
584;HTU21D;27024;54.068;12.116;2023-11-19T03:50:45;3.41;118.99
584;HTU21D;27024;54.068;12.116;2023-11-19T03:53:12;3.43;118.99
584;HTU21D;27024;54.068;12.116;2023-11-19T03:55:40;3.45;118.99
584;HTU21D;27024;54.068;12.116;2023-11-19T03:58:07;3.45;118.99
584;HTU21D;27024;54.068;12.116;2023-11-19T04:00:34;3.47;118.99
584;HTU21D;27024;54.068;12.116;2023-11-19T04:03:00;3.45;118.99
584;HTU21D;27024;54.068;12.116;2023-11-19T04:05:27;3.44;118.99
584;HTU21D;27024;54.068;12.116;2023-11-19T04:07:54;3.49;118.99
584;HTU21D;27024;54.068;12.116;2023-11-19T04:10:21;3.46;118.99
584;HTU21D;27024;54.068;12.116;2023-11-19T04:12:49;3.47;118.99
584;HTU21D;27024;54.068;12.116;2023-11-19T04:15:16;3.45;118.99
584;HTU21D;27024;54.068;12.116;2023-11-19T04:17:44;3.50;118.99
584;HTU21D;27024;54.068;12.116;2023-11-19T04:20:11;3.49;118.99
584;HTU21D;27024;54.068;12.116;2023-11-19T04:22:40;3.47;118.99
584;HTU21D;27024;54.068;12.116;2023-11-19T04:25:07;3.52;118.99
584;HTU21D;27024;54.068;12.116;2023-11-19T04:27:35;3.48;118.99
584;HTU21D;27024;54.068;12.116;2023-11-19T04:30:02;3.50;118.99
584;HTU21D;27024;54.068;12.116;2023-11-19T04:32:30;3.50;118.99
584;HTU21D;27024;54.068;12.116;2023-11-19T04:34:57;3.49;118.99
584;HTU21D;27024;54.068;12.116;2023-11-19T04:37:24;3.55;118.99
584;HTU21D;27024;54.068;12.116;2023-11-19T04:39:51;3.47;118.99
584;HTU21D;27024;54.068;12.116;2023-11-19T04:42:18;3.47;118.99
584;HTU21D;27024;54.068;12.116;2023-11-19T04:44:46;3.49;118.99
584;HTU21D;27024;54.068;12.116;2023-11-19T04:47:13;3.53;118.99
584;HTU21D;27024;54.068;12.116;2023-11-19T04:49:41;3.55;118.99
584;HTU21D;27024;54.068;12.116;2023-11-19T04:52:11;3.58;118.99
584;HTU21D;27024;54.068;12.116;2023-11-19T04:54:42;3.62;118.99
584;HTU21D;27024;54.068;12.116;2023-11-19T04:57:12;3.58;118.99
584;HTU21D;27024;54.068;12.116;2023-11-19T04:59:39;3.59;118.99
584;HTU21D;27024;54.068;12.116;2023-11-19T05:02:08;3.57;118.99
584;HTU21D;27024;54.068;12.116;2023-11-19T05:04:35;3.54;118.99
584;HTU21D;27024;54.068;12.116;2023-11-19T05:07:02;3.59;118.99
584;HTU21D;27024;54.068;12.116;2023-11-19T05:09:30;3.62;118.99
584;HTU21D;27024;54.068;12.116;2023-11-19T05:11:57;3.62;118.99
584;HTU21D;27024;54.068;12.116;2023-11-19T05:14:24;3.58;118.99
584;HTU21D;27024;54.068;12.116;2023-11-19T05:16:51;3.58;118.99
584;HTU21D;27024;54.068;12.116;2023-11-19T05:19:18;3.57;118.99
584;HTU21D;27024;54.068;12.116;2023-11-19T05:21:45;3.56;118.99
584;HTU21D;27024;54.068;12.116;2023-11-19T05:24:12;3.58;118.99
584;HTU21D;27024;54.068;12.116;2023-11-19T05:26:38;3.62;118.99
584;HTU21D;27024;54.068;12.116;2023-11-19T05:29:05;3.62;118.99
584;HTU21D;27024;54.068;12.116;2023-11-19T05:31:32;3.63;118.99
584;HTU21D;27024;54.068;12.116;2023-11-19T05:34:03;3.59;118.99
584;HTU21D;27024;54.068;12.116;2023-11-19T05:36:30;3.55;118.99
584;HTU21D;27024;54.068;12.116;2023-11-19T05:38:57;3.57;118.99
584;HTU21D;27024;54.068;12.116;2023-11-19T05:41:24;3.57;118.99
584;HTU21D;27024;54.068;12.116;2023-11-19T05:43:51;3.54;118.99
584;HTU21D;27024;54.068;12.116;2023-11-19T05:46:18;3.55;118.99
584;HTU21D;27024;54.068;12.116;2023-11-19T05:48:47;3.65;118.99
584;HTU21D;27024;54.068;12.116;2023-11-19T05:51:14;3.69;118.99
584;HTU21D;27024;54.068;12.116;2023-11-19T05:53:42;3.67;118.99
584;HTU21D;27024;54.068;12.116;2023-11-19T05:56:09;3.68;118.99
584;HTU21D;27024;54.068;12.116;2023-11-19T05:58:37;3.68;118.99
584;HTU21D;27024;54.068;12.116;2023-11-19T06:01:05;3.64;118.99
584;HTU21D;27024;54.068;12.116;2023-11-19T06:03:35;3.60;118.99
584;HTU21D;27024;54.068;12.116;2023-11-19T06:06:02;3.62;118.99
584;HTU21D;27024;54.068;12.116;2023-11-19T06:08:28;3.84;118.99
584;HTU21D;27024;54.068;12.116;2023-11-19T06:10:57;3.64;118.99
584;HTU21D;27024;54.068;12.116;2023-11-19T06:13:24;3.61;118.99
584;HTU21D;27024;54.068;12.116;2023-11-19T06:15:52;3.64;118.99
584;HTU21D;27024;54.068;12.116;2023-11-19T06:18:19;3.63;118.99
584;HTU21D;27024;54.068;12.116;2023-11-19T06:20:47;3.61;118.99
584;HTU21D;27024;54.068;12.116;2023-11-19T06:23:14;3.62;118.99
584;HTU21D;27024;54.068;12.116;2023-11-19T06:25:41;3.60;118.99
584;HTU21D;27024;54.068;12.116;2023-11-19T06:28:08;3.61;118.99
584;HTU21D;27024;54.068;12.116;2023-11-19T06:30:39;3.64;118.99
584;HTU21D;27024;54.068;12.116;2023-11-19T06:33:09;3.65;118.99
584;HTU21D;27024;54.068;12.116;2023-11-19T06:35:39;3.67;118.99
584;HTU21D;27024;54.068;12.116;2023-11-19T06:38:06;3.65;118.99
584;HTU21D;27024;54.068;12.116;2023-11-19T06:40:33;3.74;118.99
584;HTU21D;27024;54.068;12.116;2023-11-19T06:43:02;3.69;118.99
584;HTU21D;27024;54.068;12.116;2023-11-19T06:45:31;3.72;118.99
584;HTU21D;27024;54.068;12.116;2023-11-19T06:48:01;3.70;118.99
584;HTU21D;27024;54.068;12.116;2023-11-19T06:50:33;3.73;118.99
584;HTU21D;27024;54.068;12.116;2023-11-19T06:53:00;3.72;118.99
584;HTU21D;27024;54.068;12.116;2023-11-19T06:55:27;3.73;118.99
584;HTU21D;27024;54.068;12.116;2023-11-19T06:57:54;3.71;118.99
584;HTU21D;27024;54.068;12.116;2023-11-19T07:00:21;3.77;118.99
584;HTU21D;27024;54.068;12.116;2023-11-19T07:02:48;3.77;118.99
584;HTU21D;27024;54.068;12.116;2023-11-19T07:05:16;3.83;118.99
584;HTU21D;27024;54.068;12.116;2023-11-19T07:07:43;3.77;118.99
584;HTU21D;27024;54.068;12.116;2023-11-19T07:10:12;3.85;118.99
584;HTU21D;27024;54.068;12.116;2023-11-19T07:12:39;3.83;118.99
584;HTU21D;27024;54.068;12.116;2023-11-19T07:15:06;3.76;118.99
584;HTU21D;27024;54.068;12.116;2023-11-19T07:17:33;3.78;118.99
584;HTU21D;27024;54.068;12.116;2023-11-19T07:20:02;3.80;118.99
584;HTU21D;27024;54.068;12.116;2023-11-19T07:22:29;3.85;118.99
584;HTU21D;27024;54.068;12.116;2023-11-19T07:24:56;3.86;118.99
584;HTU21D;27024;54.068;12.116;2023-11-19T07:27:23;3.86;118.99
584;HTU21D;27024;54.068;12.116;2023-11-19T07:29:51;4.05;118.99
584;HTU21D;27024;54.068;12.116;2023-11-19T07:32:18;3.92;118.99
584;HTU21D;27024;54.068;12.116;2023-11-19T07:34:45;3.87;118.99
584;HTU21D;27024;54.068;12.116;2023-11-19T07:37:12;3.89;118.99
584;HTU21D;27024;54.068;12.116;2023-11-19T07:39:39;3.88;118.99
584;HTU21D;27024;54.068;12.116;2023-11-19T07:42:08;4.04;118.99
584;HTU21D;27024;54.068;12.116;2023-11-19T07:44:36;3.97;118.99
584;HTU21D;27024;54.068;12.116;2023-11-19T07:47:03;3.93;118.99
584;HTU21D;27024;54.068;12.116;2023-11-19T07:49:30;3.97;118.99
584;HTU21D;27024;54.068;12.116;2023-11-19T07:51:58;3.92;118.99
584;HTU21D;27024;54.068;12.116;2023-11-19T07:54:25;3.92;118.99
584;HTU21D;27024;54.068;12.116;2023-11-19T07:56:52;3.97;118.99
584;HTU21D;27024;54.068;12.116;2023-11-19T07:59:19;3.90;118.99
584;HTU21D;27024;54.068;12.116;2023-11-19T08:01:45;3.93;118.99
584;HTU21D;27024;54.068;12.116;2023-11-19T08:04:12;3.97;118.99
584;HTU21D;27024;54.068;12.116;2023-11-19T08:06:40;3.97;118.99
584;HTU21D;27024;54.068;12.116;2023-11-19T08:09:06;4.00;118.99
584;HTU21D;27024;54.068;12.116;2023-11-19T08:11:33;3.98;118.99
584;HTU21D;27024;54.068;12.116;2023-11-19T08:14:00;5.01;118.99
584;HTU21D;27024;54.068;12.116;2023-11-19T08:16:27;4.12;118.99
584;HTU21D;27024;54.068;12.116;2023-11-19T08:18:54;4.10;118.99
584;HTU21D;27024;54.068;12.116;2023-11-19T08:21:21;4.12;118.99
584;HTU21D;27024;54.068;12.116;2023-11-19T08:23:49;4.12;118.99
584;HTU21D;27024;54.068;12.116;2023-11-19T08:26:19;4.12;118.99
584;HTU21D;27024;54.068;12.116;2023-11-19T08:28:47;4.27;118.99
584;HTU21D;27024;54.068;12.116;2023-11-19T08:31:15;4.24;118.99
584;HTU21D;27024;54.068;12.116;2023-11-19T08:33:42;4.19;118.99
584;HTU21D;27024;54.068;12.116;2023-11-19T08:36:09;4.21;118.99
584;HTU21D;27024;54.068;12.116;2023-11-19T08:38:41;4.29;118.99
584;HTU21D;27024;54.068;12.116;2023-11-19T08:41:08;4.27;118.99
584;HTU21D;27024;54.068;12.116;2023-11-19T08:43:35;4.21;118.99
584;HTU21D;27024;54.068;12.116;2023-11-19T08:46:03;4.22;118.99
584;HTU21D;27024;54.068;12.116;2023-11-19T08:48:30;4.28;118.99
584;HTU21D;27024;54.068;12.116;2023-11-19T08:50:57;4.30;118.99
584;HTU21D;27024;54.068;12.116;2023-11-19T08:53:24;4.28;118.99
584;HTU21D;27024;54.068;12.116;2023-11-19T08:55:51;4.28;118.99
584;HTU21D;27024;54.068;12.116;2023-11-19T08:58:18;4.38;118.99
584;HTU21D;27024;54.068;12.116;2023-11-19T09:00:45;4.83;118.99
584;HTU21D;27024;54.068;12.116;2023-11-19T09:03:12;4.42;118.99
584;HTU21D;27024;54.068;12.116;2023-11-19T09:05:39;4.44;118.99
584;HTU21D;27024;54.068;12.116;2023-11-19T09:08:06;4.47;118.99
584;HTU21D;27024;54.068;12.116;2023-11-19T09:10:33;4.47;118.99
584;HTU21D;27024;54.068;12.116;2023-11-19T09:13:00;4.47;118.99
584;HTU21D;27024;54.068;12.116;2023-11-19T09:15:27;4.48;118.99
584;HTU21D;27024;54.068;12.116;2023-11-19T09:17:54;4.46;118.99
584;HTU21D;27024;54.068;12.116;2023-11-19T09:20:21;4.52;118.99
584;HTU21D;27024;54.068;12.116;2023-11-19T09:22:48;4.57;118.99
584;HTU21D;27024;54.068;12.116;2023-11-19T09:25:15;4.54;118.99
584;HTU21D;27024;54.068;12.116;2023-11-19T09:27:44;4.58;118.99
584;HTU21D;27024;54.068;12.116;2023-11-19T09:30:11;4.60;118.99
584;HTU21D;27024;54.068;12.116;2023-11-19T09:32:39;4.62;118.99
584;HTU21D;27024;54.068;12.116;2023-11-19T09:35:07;4.67;118.99
584;HTU21D;27024;54.068;12.116;2023-11-19T09:37:35;4.73;118.99
584;HTU21D;27024;54.068;12.116;2023-11-19T09:40:02;4.75;118.99
584;HTU21D;27024;54.068;12.116;2023-11-19T09:42:31;4.79;118.99
584;HTU21D;27024;54.068;12.116;2023-11-19T09:45:04;4.81;118.99
584;HTU21D;27024;54.068;12.116;2023-11-19T09:47:34;4.76;118.99
584;HTU21D;27024;54.068;12.116;2023-11-19T09:50:01;4.89;118.99
584;HTU21D;27024;54.068;12.116;2023-11-19T09:52:28;4.96;118.99
584;HTU21D;27024;54.068;12.116;2023-11-19T09:54:55;5.01;118.99
584;HTU21D;27024;54.068;12.116;2023-11-19T09:57:22;5.11;118.99
584;HTU21D;27024;54.068;12.116;2023-11-19T09:59:50;5.22;118.99
584;HTU21D;27024;54.068;12.116;2023-11-19T10:02:18;5.26;118.99
584;HTU21D;27024;54.068;12.116;2023-11-19T10:04:46;5.36;118.99
584;HTU21D;27024;54.068;12.116;2023-11-19T10:07:14;5.37;118.99
584;HTU21D;27024;54.068;12.116;2023-11-19T10:09:41;5.45;118.99
584;HTU21D;27024;54.068;12.116;2023-11-19T10:12:08;5.50;118.99
584;HTU21D;27024;54.068;12.116;2023-11-19T10:14:36;5.53;118.99
584;HTU21D;27024;54.068;12.116;2023-11-19T10:17:07;5.54;118.99
584;HTU21D;27024;54.068;12.116;2023-11-19T10:19:34;5.59;118.99
584;HTU21D;27024;54.068;12.116;2023-11-19T10:22:05;5.59;118.99
584;HTU21D;27024;54.068;12.116;2023-11-19T10:24:32;5.68;118.99
584;HTU21D;27024;54.068;12.116;2023-11-19T10:27:09;5.75;118.99
584;HTU21D;27024;54.068;12.116;2023-11-19T10:29:37;5.87;118.99
584;HTU21D;27024;54.068;12.116;2023-11-19T10:32:04;5.95;118.99
584;HTU21D;27024;54.068;12.116;2023-11-19T10:34:51;5.95;118.99
584;HTU21D;27024;54.068;12.116;2023-11-19T10:37:28;6.02;118.99
584;HTU21D;27024;54.068;12.116;2023-11-19T10:40:00;6.12;118.99
584;HTU21D;27024;54.068;12.116;2023-11-19T10:42:27;6.23;118.99
584;HTU21D;27024;54.068;12.116;2023-11-19T10:44:54;6.37;118.99
584;HTU21D;27024;54.068;12.116;2023-11-19T10:47:22;6.38;118.99
584;HTU21D;27024;54.068;12.116;2023-11-19T10:49:53;6.46;118.99
584;HTU21D;27024;54.068;12.116;2023-11-19T10:52:20;6.55;118.99
584;HTU21D;27024;54.068;12.116;2023-11-19T10:54:50;6.65;118.99
584;HTU21D;27024;54.068;12.116;2023-11-19T10:57:21;6.73;118.99
584;HTU21D;27024;54.068;12.116;2023-11-19T11:00:00;6.84;118.99
584;HTU21D;27024;54.068;12.116;2023-11-19T11:02:30;6.95;118.99
584;HTU21D;27024;54.068;12.116;2023-11-19T11:05:01;7.07;118.99
584;HTU21D;27024;54.068;12.116;2023-11-19T11:07:31;7.28;118.99
584;HTU21D;27024;54.068;12.116;2023-11-19T11:10:07;7.32;118.99
584;HTU21D;27024;54.068;12.116;2023-11-19T11:12:37;7.28;118.99
584;HTU21D;27024;54.068;12.116;2023-11-19T11:15:11;7.47;118.99
584;HTU21D;27024;54.068;12.116;2023-11-19T11:17:43;7.56;118.99
584;HTU21D;27024;54.068;12.116;2023-11-19T11:20:12;7.69;118.99
584;HTU21D;27024;54.068;12.116;2023-11-19T11:22:57;7.88;118.99
584;HTU21D;27024;54.068;12.116;2023-11-19T11:31:22;8.26;118.99
584;HTU21D;27024;54.068;12.116;2023-11-19T11:37:25;8.44;118.99
584;HTU21D;27024;54.068;12.116;2023-11-19T11:39:57;8.48;118.99
584;HTU21D;27024;54.068;12.116;2023-11-19T11:45:08;8.60;118.99
584;HTU21D;27024;54.068;12.116;2023-11-19T11:50:10;8.77;118.99
584;HTU21D;27024;54.068;12.116;2023-11-19T11:57:55;9.19;118.99
584;HTU21D;27024;54.068;12.116;2023-11-19T12:00:26;9.33;118.99
584;HTU21D;27024;54.068;12.116;2023-11-19T12:02:55;9.55;118.99
584;HTU21D;27024;54.068;12.116;2023-11-19T12:05:23;9.62;118.99
584;HTU21D;27024;54.068;12.116;2023-11-19T12:08:00;9.76;118.99
584;HTU21D;27024;54.068;12.116;2023-11-19T12:10:32;9.72;118.99
584;HTU21D;27024;54.068;12.116;2023-11-19T12:13:00;9.83;118.99
584;HTU21D;27024;54.068;12.116;2023-11-19T12:15:27;9.93;118.99
584;HTU21D;27024;54.068;12.116;2023-11-19T12:17:55;10.03;118.99
584;HTU21D;27024;54.068;12.116;2023-11-19T12:20:24;10.11;118.99
584;HTU21D;27024;54.068;12.116;2023-11-19T12:22:54;10.05;118.99
584;HTU21D;27024;54.068;12.116;2023-11-19T12:25:21;10.12;118.99
584;HTU21D;27024;54.068;12.116;2023-11-19T12:27:50;10.23;118.99
584;HTU21D;27024;54.068;12.116;2023-11-19T12:30:24;10.22;118.99
584;HTU21D;27024;54.068;12.116;2023-11-19T12:32:53;10.16;118.99
584;HTU21D;27024;54.068;12.116;2023-11-19T12:35:23;10.12;118.99
584;HTU21D;27024;54.068;12.116;2023-11-19T12:37:51;10.14;118.99
584;HTU21D;27024;54.068;12.116;2023-11-19T12:40:23;10.26;118.99
584;HTU21D;27024;54.068;12.116;2023-11-19T12:42:55;10.16;118.99
584;HTU21D;27024;54.068;12.116;2023-11-19T12:45:23;10.27;118.99
584;HTU21D;27024;54.068;12.116;2023-11-19T12:48:06;10.15;118.99
584;HTU21D;27024;54.068;12.116;2023-11-19T12:53:26;10.12;118.99
584;HTU21D;27024;54.068;12.116;2023-11-19T12:55:54;10.07;118.99
584;HTU21D;27024;54.068;12.116;2023-11-19T12:58:33;10.10;118.99
584;HTU21D;27024;54.068;12.116;2023-11-19T13:01:06;10.13;118.99
584;HTU21D;27024;54.068;12.116;2023-11-19T13:03:36;10.22;118.99
584;HTU21D;27024;54.068;12.116;2023-11-19T13:06:07;10.26;118.99
584;HTU21D;27024;54.068;12.116;2023-11-19T13:08:38;10.43;118.99
584;HTU21D;27024;54.068;12.116;2023-11-19T13:11:06;10.57;118.99
584;HTU21D;27024;54.068;12.116;2023-11-19T13:13:58;10.55;118.99
584;HTU21D;27024;54.068;12.116;2023-11-19T13:16:27;10.72;118.99
584;HTU21D;27024;54.068;12.116;2023-11-19T13:18:54;10.60;118.99
584;HTU21D;27024;54.068;12.116;2023-11-19T13:21:22;10.62;118.99
584;HTU21D;27024;54.068;12.116;2023-11-19T13:23:49;10.65;118.99
584;HTU21D;27024;54.068;12.116;2023-11-19T13:26:16;10.60;118.99
584;HTU21D;27024;54.068;12.116;2023-11-19T13:28:43;10.60;118.99
584;HTU21D;27024;54.068;12.116;2023-11-19T13:31:10;10.60;118.99
584;HTU21D;27024;54.068;12.116;2023-11-19T13:33:37;10.71;118.99
584;HTU21D;27024;54.068;12.116;2023-11-19T13:36:05;10.68;118.99
584;HTU21D;27024;54.068;12.116;2023-11-19T13:38:35;10.74;118.99
584;HTU21D;27024;54.068;12.116;2023-11-19T13:41:05;10.58;118.99
584;HTU21D;27024;54.068;12.116;2023-11-19T13:43:32;10.65;118.99
584;HTU21D;27024;54.068;12.116;2023-11-19T13:45:59;10.62;118.99
584;HTU21D;27024;54.068;12.116;2023-11-19T13:48:26;10.56;118.99
584;HTU21D;27024;54.068;12.116;2023-11-19T13:50:55;10.52;118.99
584;HTU21D;27024;54.068;12.116;2023-11-19T13:53:22;10.46;118.99
584;HTU21D;27024;54.068;12.116;2023-11-19T13:55:50;10.38;118.99
584;HTU21D;27024;54.068;12.116;2023-11-19T13:58:17;10.35;118.99
584;HTU21D;27024;54.068;12.116;2023-11-19T14:00:44;10.34;118.99
584;HTU21D;27024;54.068;12.116;2023-11-19T14:03:11;10.38;118.99
584;HTU21D;27024;54.068;12.116;2023-11-19T14:05:39;10.24;118.99
584;HTU21D;27024;54.068;12.116;2023-11-19T14:08:08;10.28;118.99
584;HTU21D;27024;54.068;12.116;2023-11-19T14:10:51;10.25;118.99
584;HTU21D;27024;54.068;12.116;2023-11-19T14:13:19;10.22;118.99
584;HTU21D;27024;54.068;12.116;2023-11-19T14:15:46;10.15;118.99
584;HTU21D;27024;54.068;12.116;2023-11-19T14:18:16;10.16;118.99
584;HTU21D;27024;54.068;12.116;2023-11-19T14:20:43;10.08;118.99
584;HTU21D;27024;54.068;12.116;2023-11-19T14:23:17;9.96;118.99
584;HTU21D;27024;54.068;12.116;2023-11-19T14:25:44;9.93;118.99
584;HTU21D;27024;54.068;12.116;2023-11-19T14:28:11;9.85;118.99
584;HTU21D;27024;54.068;12.116;2023-11-19T14:30:38;9.84;118.99
584;HTU21D;27024;54.068;12.116;2023-11-19T14:33:05;9.75;118.99
584;HTU21D;27024;54.068;12.116;2023-11-19T14:35:32;9.69;118.99
584;HTU21D;27024;54.068;12.116;2023-11-19T14:38:00;9.65;118.99
584;HTU21D;27024;54.068;12.116;2023-11-19T14:40:31;9.63;118.99
584;HTU21D;27024;54.068;12.116;2023-11-19T14:43:01;9.63;118.99
584;HTU21D;27024;54.068;12.116;2023-11-19T14:45:29;9.57;118.99
584;HTU21D;27024;54.068;12.116;2023-11-19T14:48:07;9.61;118.99
584;HTU21D;27024;54.068;12.116;2023-11-19T14:50:34;9.65;118.99
584;HTU21D;27024;54.068;12.116;2023-11-19T14:53:01;9.60;118.99
584;HTU21D;27024;54.068;12.116;2023-11-19T14:55:28;9.61;118.99
584;HTU21D;27024;54.068;12.116;2023-11-19T14:57:55;9.59;118.99
584;HTU21D;27024;54.068;12.116;2023-11-19T15:00:34;9.55;118.99
584;HTU21D;27024;54.068;12.116;2023-11-19T15:03:01;9.60;118.99
584;HTU21D;27024;54.068;12.116;2023-11-19T15:05:28;9.55;118.99
584;HTU21D;27024;54.068;12.116;2023-11-19T15:07:57;9.55;118.99
584;HTU21D;27024;54.068;12.116;2023-11-19T15:10:24;9.47;118.99
584;HTU21D;27024;54.068;12.116;2023-11-19T15:12:52;9.48;118.99
584;HTU21D;27024;54.068;12.116;2023-11-19T15:15:20;9.50;118.99
584;HTU21D;27024;54.068;12.116;2023-11-19T15:17:51;9.54;118.99
584;HTU21D;27024;54.068;12.116;2023-11-19T15:20:19;9.55;118.99
584;HTU21D;27024;54.068;12.116;2023-11-19T15:22:46;9.50;118.99
584;HTU21D;27024;54.068;12.116;2023-11-19T15:25:13;9.52;118.99
584;HTU21D;27024;54.068;12.116;2023-11-19T15:27:40;9.49;118.99
584;HTU21D;27024;54.068;12.116;2023-11-19T15:30:08;9.56;118.99
584;HTU21D;27024;54.068;12.116;2023-11-19T15:32:42;9.47;118.99
584;HTU21D;27024;54.068;12.116;2023-11-19T15:35:12;9.44;118.99
584;HTU21D;27024;54.068;12.116;2023-11-19T15:37:43;9.44;118.99
584;HTU21D;27024;54.068;12.116;2023-11-19T15:40:14;9.48;118.99
584;HTU21D;27024;54.068;12.116;2023-11-19T15:42:43;9.44;118.99
584;HTU21D;27024;54.068;12.116;2023-11-19T15:45:12;9.48;118.99
584;HTU21D;27024;54.068;12.116;2023-11-19T15:47:40;9.40;118.99
584;HTU21D;27024;54.068;12.116;2023-11-19T15:50:09;9.47;118.99
584;HTU21D;27024;54.068;12.116;2023-11-19T15:52:38;9.42;118.99
584;HTU21D;27024;54.068;12.116;2023-11-19T15:55:06;9.46;118.99
584;HTU21D;27024;54.068;12.116;2023-11-19T15:57:33;9.48;118.99
584;HTU21D;27024;54.068;12.116;2023-11-19T16:00:00;9.45;118.99